sensor_id;sensor_type;location;lat;lon;timestamp;P1;durP1;ratioP1;P2;durP2;ratioP2
5871;SDS011;2962;51.312;7.378;2022-11-20T00:00:52;17.97;;;10.87;;
5871;SDS011;2962;51.312;7.378;2022-11-20T00:03:18;14.07;;;9.53;;
5871;SDS011;2962;51.312;7.378;2022-11-20T00:05:43;16.50;;;10.23;;
5871;SDS011;2962;51.312;7.378;2022-11-20T00:08:09;14.97;;;9.47;;
5871;SDS011;2962;51.312;7.378;2022-11-20T00:10:37;13.97;;;8.80;;
5871;SDS011;2962;51.312;7.378;2022-11-20T00:13:03;15.98;;;9.73;;
5871;SDS011;2962;51.312;7.378;2022-11-20T00:15:29;16.23;;;9.40;;
5871;SDS011;2962;51.312;7.378;2022-11-20T00:17:54;15.93;;;9.90;;
5871;SDS011;2962;51.312;7.378;2022-11-20T00:20:19;14.93;;;9.90;;
5871;SDS011;2962;51.312;7.378;2022-11-20T00:22:45;15.17;;;9.17;;
5871;SDS011;2962;51.312;7.378;2022-11-20T00:25:10;14.17;;;9.90;;
5871;SDS011;2962;51.312;7.378;2022-11-20T00:27:37;16.33;;;9.75;;
5871;SDS011;2962;51.312;7.378;2022-11-20T00:30:02;15.80;;;9.87;;
5871;SDS011;2962;51.312;7.378;2022-11-20T00:32:29;14.38;;;8.38;;
5871;SDS011;2962;51.312;7.378;2022-11-20T00:34:54;13.93;;;10.03;;
5871;SDS011;2962;51.312;7.378;2022-11-20T00:37:19;14.47;;;9.73;;
5871;SDS011;2962;51.312;7.378;2022-11-20T00:39:45;17.33;;;9.13;;
5871;SDS011;2962;51.312;7.378;2022-11-20T00:42:10;16.90;;;9.43;;
5871;SDS011;2962;51.312;7.378;2022-11-20T00:44:36;14.53;;;8.60;;
5871;SDS011;2962;51.312;7.378;2022-11-20T00:47:01;16.53;;;8.50;;
5871;SDS011;2962;51.312;7.378;2022-11-20T00:49:26;9.80;;;8.00;;
5871;SDS011;2962;51.312;7.378;2022-11-20T00:51:51;14.67;;;8.67;;
5871;SDS011;2962;51.312;7.378;2022-11-20T00:54:17;13.23;;;8.10;;
5871;SDS011;2962;51.312;7.378;2022-11-20T00:56:42;14.67;;;9.40;;
5871;SDS011;2962;51.312;7.378;2022-11-20T00:59:08;10.97;;;7.60;;
5871;SDS011;2962;51.312;7.378;2022-11-20T01:01:34;15.00;;;9.50;;
5871;SDS011;2962;51.312;7.378;2022-11-20T01:04:00;15.00;;;8.57;;
5871;SDS011;2962;51.312;7.378;2022-11-20T01:06:30;21.77;;;11.23;;
5871;SDS011;2962;51.312;7.378;2022-11-20T01:08:58;13.63;;;8.30;;
5871;SDS011;2962;51.312;7.378;2022-11-20T01:11:26;14.30;;;7.90;;
5871;SDS011;2962;51.312;7.378;2022-11-20T01:13:54;12.80;;;8.45;;
5871;SDS011;2962;51.312;7.378;2022-11-20T01:16:22;14.63;;;8.52;;
5871;SDS011;2962;51.312;7.378;2022-11-20T01:18:53;16.05;;;8.05;;
5871;SDS011;2962;51.312;7.378;2022-11-20T01:21:22;11.05;;;7.32;;
5871;SDS011;2962;51.312;7.378;2022-11-20T01:23:49;11.90;;;7.55;;
5871;SDS011;2962;51.312;7.378;2022-11-20T01:26:16;12.32;;;7.10;;
5871;SDS011;2962;51.312;7.378;2022-11-20T01:28:43;12.32;;;8.15;;
5871;SDS011;2962;51.312;7.378;2022-11-20T01:33:55;13.25;;;8.20;;
5871;SDS011;2962;51.312;7.378;2022-11-20T01:36:22;13.20;;;7.80;;
5871;SDS011;2962;51.312;7.378;2022-11-20T01:38:56;15.18;;;8.95;;
5871;SDS011;2962;51.312;7.378;2022-11-20T01:41:24;12.65;;;8.50;;
5871;SDS011;2962;51.312;7.378;2022-11-20T01:44:10;15.57;;;9.10;;
5871;SDS011;2962;51.312;7.378;2022-11-20T01:46:42;17.48;;;10.98;;
5871;SDS011;2962;51.312;7.378;2022-11-20T01:49:33;19.80;;;9.35;;
5871;SDS011;2962;51.312;7.378;2022-11-20T01:52:24;20.42;;;10.45;;
5871;SDS011;2962;51.312;7.378;2022-11-20T01:55:02;15.88;;;9.15;;
5871;SDS011;2962;51.312;7.378;2022-11-20T01:57:32;15.05;;;9.20;;
5871;SDS011;2962;51.312;7.378;2022-11-20T02:00:00;17.13;;;10.50;;
5871;SDS011;2962;51.312;7.378;2022-11-20T02:02:30;20.67;;;10.68;;
5871;SDS011;2962;51.312;7.378;2022-11-20T02:04:56;19.87;;;10.43;;
5871;SDS011;2962;51.312;7.378;2022-11-20T02:07:27;18.15;;;10.27;;
5871;SDS011;2962;51.312;7.378;2022-11-20T02:09:53;18.67;;;10.20;;
5871;SDS011;2962;51.312;7.378;2022-11-20T02:12:19;14.23;;;8.27;;
5871;SDS011;2962;51.312;7.378;2022-11-20T02:15:03;19.17;;;9.63;;
5871;SDS011;2962;51.312;7.378;2022-11-20T02:17:29;15.40;;;9.02;;
5871;SDS011;2962;51.312;7.378;2022-11-20T02:19:55;20.30;;;10.23;;
5871;SDS011;2962;51.312;7.378;2022-11-20T02:22:38;17.50;;;9.93;;
5871;SDS011;2962;51.312;7.378;2022-11-20T02:25:13;22.90;;;11.20;;
5871;SDS011;2962;51.312;7.378;2022-11-20T02:27:39;17.73;;;9.87;;
5871;SDS011;2962;51.312;7.378;2022-11-20T02:30:05;19.77;;;10.50;;
5871;SDS011;2962;51.312;7.378;2022-11-20T02:32:35;16.95;;;10.25;;
5871;SDS011;2962;51.312;7.378;2022-11-20T02:35:07;19.90;;;10.73;;
5871;SDS011;2962;51.312;7.378;2022-11-20T02:37:34;17.45;;;11.02;;
5871;SDS011;2962;51.312;7.378;2022-11-20T02:40:01;19.02;;;10.95;;
5871;SDS011;2962;51.312;7.378;2022-11-20T02:42:26;15.73;;;11.37;;
5871;SDS011;2962;51.312;7.378;2022-11-20T02:44:51;17.03;;;10.83;;
5871;SDS011;2962;51.312;7.378;2022-11-20T02:47:17;18.70;;;11.10;;
5871;SDS011;2962;51.312;7.378;2022-11-20T02:49:42;18.57;;;9.80;;
5871;SDS011;2962;51.312;7.378;2022-11-20T02:52:07;15.87;;;10.93;;
5871;SDS011;2962;51.312;7.378;2022-11-20T02:54:33;18.30;;;10.33;;
5871;SDS011;2962;51.312;7.378;2022-11-20T02:56:58;14.90;;;10.23;;
5871;SDS011;2962;51.312;7.378;2022-11-20T02:59:23;17.23;;;10.47;;
5871;SDS011;2962;51.312;7.378;2022-11-20T03:01:49;23.00;;;11.27;;
5871;SDS011;2962;51.312;7.378;2022-11-20T03:04:14;21.83;;;11.27;;
5871;SDS011;2962;51.312;7.378;2022-11-20T03:06:39;16.00;;;9.93;;
5871;SDS011;2962;51.312;7.378;2022-11-20T03:09:04;19.97;;;10.40;;
5871;SDS011;2962;51.312;7.378;2022-11-20T03:11:30;23.23;;;11.40;;
5871;SDS011;2962;51.312;7.378;2022-11-20T03:13:55;18.00;;;10.90;;
5871;SDS011;2962;51.312;7.378;2022-11-20T03:16:21;17.77;;;11.27;;
5871;SDS011;2962;51.312;7.378;2022-11-20T03:18:47;18.85;;;10.50;;
5871;SDS011;2962;51.312;7.378;2022-11-20T03:21:13;17.10;;;11.30;;
5871;SDS011;2962;51.312;7.378;2022-11-20T03:23:40;19.20;;;11.10;;
5871;SDS011;2962;51.312;7.378;2022-11-20T03:28:37;22.73;;;10.27;;
5871;SDS011;2962;51.312;7.378;2022-11-20T03:31:10;27.10;;;12.47;;
5871;SDS011;2962;51.312;7.378;2022-11-20T03:33:37;21.60;;;12.30;;
5871;SDS011;2962;51.312;7.378;2022-11-20T03:36:04;21.05;;;12.75;;
5871;SDS011;2962;51.312;7.378;2022-11-20T03:38:31;20.38;;;12.00;;
5871;SDS011;2962;51.312;7.378;2022-11-20T03:41:00;25.60;;;13.27;;
5871;SDS011;2962;51.312;7.378;2022-11-20T03:43:27;21.73;;;11.45;;
5871;SDS011;2962;51.312;7.378;2022-11-20T03:45:53;21.97;;;12.63;;
5871;SDS011;2962;51.312;7.378;2022-11-20T03:48:18;20.97;;;12.50;;
5871;SDS011;2962;51.312;7.378;2022-11-20T03:50:43;18.43;;;11.83;;
5871;SDS011;2962;51.312;7.378;2022-11-20T03:53:09;27.10;;;13.50;;
5871;SDS011;2962;51.312;7.378;2022-11-20T03:55:34;22.50;;;12.70;;
5871;SDS011;2962;51.312;7.378;2022-11-20T03:57:59;24.43;;;14.10;;
5871;SDS011;2962;51.312;7.378;2022-11-20T04:00:24;24.53;;;13.33;;
5871;SDS011;2962;51.312;7.378;2022-11-20T04:02:50;27.73;;;13.73;;
5871;SDS011;2962;51.312;7.378;2022-11-20T04:05:15;23.40;;;12.80;;
5871;SDS011;2962;51.312;7.378;2022-11-20T04:07:40;26.57;;;13.90;;
5871;SDS011;2962;51.312;7.378;2022-11-20T04:10:06;22.67;;;13.33;;
5871;SDS011;2962;51.312;7.378;2022-11-20T04:12:32;25.47;;;14.90;;
5871;SDS011;2962;51.312;7.378;2022-11-20T04:14:58;29.25;;;14.50;;
5871;SDS011;2962;51.312;7.378;2022-11-20T04:17:23;25.90;;;14.90;;
5871;SDS011;2962;51.312;7.378;2022-11-20T04:19:48;30.03;;;13.77;;
5871;SDS011;2962;51.312;7.378;2022-11-20T04:22:14;27.40;;;14.37;;
5871;SDS011;2962;51.312;7.378;2022-11-20T04:24:39;26.40;;;13.67;;
5871;SDS011;2962;51.312;7.378;2022-11-20T04:27:04;30.53;;;13.80;;
5871;SDS011;2962;51.312;7.378;2022-11-20T04:29:30;27.07;;;13.80;;
5871;SDS011;2962;51.312;7.378;2022-11-20T04:31:55;27.60;;;13.80;;
5871;SDS011;2962;51.312;7.378;2022-11-20T04:34:20;28.43;;;14.20;;
5871;SDS011;2962;51.312;7.378;2022-11-20T04:36:45;27.40;;;14.50;;
5871;SDS011;2962;51.312;7.378;2022-11-20T04:39:11;25.67;;;14.53;;
5871;SDS011;2962;51.312;7.378;2022-11-20T04:41:39;25.15;;;13.82;;
5871;SDS011;2962;51.312;7.378;2022-11-20T04:44:04;24.67;;;13.00;;
5871;SDS011;2962;51.312;7.378;2022-11-20T04:46:31;27.67;;;14.00;;
5871;SDS011;2962;51.312;7.378;2022-11-20T04:48:58;24.25;;;13.43;;
5871;SDS011;2962;51.312;7.378;2022-11-20T04:51:24;25.70;;;13.82;;
5871;SDS011;2962;51.312;7.378;2022-11-20T04:53:49;27.83;;;13.30;;
5871;SDS011;2962;51.312;7.378;2022-11-20T04:56:15;15.37;;;10.13;;
5871;SDS011;2962;51.312;7.378;2022-11-20T04:58:41;16.60;;;9.38;;
5871;SDS011;2962;51.312;7.378;2022-11-20T05:01:07;22.97;;;12.97;;
5871;SDS011;2962;51.312;7.378;2022-11-20T05:03:35;25.27;;;13.48;;
5871;SDS011;2962;51.312;7.378;2022-11-20T05:06:04;21.63;;;13.20;;
5871;SDS011;2962;51.312;7.378;2022-11-20T05:08:30;22.52;;;12.50;;
5871;SDS011;2962;51.312;7.378;2022-11-20T05:11:09;25.38;;;13.80;;
5871;SDS011;2962;51.312;7.378;2022-11-20T05:13:36;27.75;;;15.00;;
5871;SDS011;2962;51.312;7.378;2022-11-20T05:16:06;25.67;;;13.45;;
5871;SDS011;2962;51.312;7.378;2022-11-20T05:18:33;23.63;;;13.65;;
5871;SDS011;2962;51.312;7.378;2022-11-20T05:20:59;26.50;;;14.20;;
5871;SDS011;2962;51.312;7.378;2022-11-20T05:23:25;20.02;;;11.35;;
5871;SDS011;2962;51.312;7.378;2022-11-20T05:25:52;24.93;;;12.57;;
5871;SDS011;2962;51.312;7.378;2022-11-20T05:28:18;23.13;;;12.93;;
5871;SDS011;2962;51.312;7.378;2022-11-20T05:30:43;17.80;;;11.10;;
5871;SDS011;2962;51.312;7.378;2022-11-20T05:33:08;24.43;;;12.97;;
5871;SDS011;2962;51.312;7.378;2022-11-20T05:35:34;25.33;;;12.80;;
5871;SDS011;2962;51.312;7.378;2022-11-20T05:37:59;22.63;;;12.17;;
5871;SDS011;2962;51.312;7.378;2022-11-20T05:40:24;24.20;;;11.83;;
5871;SDS011;2962;51.312;7.378;2022-11-20T05:42:49;17.70;;;10.47;;
5871;SDS011;2962;51.312;7.378;2022-11-20T05:45:15;22.73;;;12.30;;
5871;SDS011;2962;51.312;7.378;2022-11-20T05:47:40;24.00;;;12.60;;
5871;SDS011;2962;51.312;7.378;2022-11-20T05:50:05;21.10;;;11.57;;
5871;SDS011;2962;51.312;7.378;2022-11-20T05:52:31;19.53;;;10.97;;
5871;SDS011;2962;51.312;7.378;2022-11-20T05:54:56;19.30;;;10.73;;
5871;SDS011;2962;51.312;7.378;2022-11-20T05:57:21;22.63;;;12.23;;
5871;SDS011;2962;51.312;7.378;2022-11-20T05:59:47;26.27;;;13.27;;
5871;SDS011;2962;51.312;7.378;2022-11-20T06:02:12;22.67;;;11.77;;
5871;SDS011;2962;51.312;7.378;2022-11-20T06:04:38;24.00;;;12.10;;
5871;SDS011;2962;51.312;7.378;2022-11-20T06:07:04;21.73;;;12.93;;
5871;SDS011;2962;51.312;7.378;2022-11-20T06:09:30;27.30;;;14.80;;
5871;SDS011;2962;51.312;7.378;2022-11-20T06:11:56;19.90;;;12.37;;
5871;SDS011;2962;51.312;7.378;2022-11-20T06:14:21;18.67;;;11.87;;
5871;SDS011;2962;51.312;7.378;2022-11-20T06:16:46;20.47;;;11.70;;
5871;SDS011;2962;51.312;7.378;2022-11-20T06:19:12;20.60;;;11.83;;
5871;SDS011;2962;51.312;7.378;2022-11-20T06:21:37;18.60;;;10.90;;
5871;SDS011;2962;51.312;7.378;2022-11-20T06:24:02;18.60;;;11.17;;
5871;SDS011;2962;51.312;7.378;2022-11-20T06:26:28;20.63;;;11.17;;
5871;SDS011;2962;51.312;7.378;2022-11-20T06:28:55;23.88;;;11.68;;
5871;SDS011;2962;51.312;7.378;2022-11-20T06:31:21;14.95;;;9.27;;
5871;SDS011;2962;51.312;7.378;2022-11-20T06:33:48;15.98;;;9.70;;
5871;SDS011;2962;51.312;7.378;2022-11-20T06:36:15;19.20;;;12.13;;
5871;SDS011;2962;51.312;7.378;2022-11-20T06:38:43;16.70;;;10.30;;
5871;SDS011;2962;51.312;7.378;2022-11-20T06:41:16;18.95;;;10.80;;
5871;SDS011;2962;51.312;7.378;2022-11-20T06:43:43;18.55;;;10.90;;
5871;SDS011;2962;51.312;7.378;2022-11-20T06:46:10;17.23;;;10.33;;
5871;SDS011;2962;51.312;7.378;2022-11-20T06:48:36;15.88;;;9.80;;
5871;SDS011;2962;51.312;7.378;2022-11-20T06:51:05;15.53;;;9.40;;
5871;SDS011;2962;51.312;7.378;2022-11-20T06:53:32;16.70;;;9.88;;
5871;SDS011;2962;51.312;7.378;2022-11-20T06:55:57;13.23;;;9.70;;
5871;SDS011;2962;51.312;7.378;2022-11-20T06:58:23;14.63;;;9.80;;
5871;SDS011;2962;51.312;7.378;2022-11-20T07:00:50;19.17;;;10.90;;
5871;SDS011;2962;51.312;7.378;2022-11-20T07:03:16;17.10;;;10.47;;
5871;SDS011;2962;51.312;7.378;2022-11-20T07:05:41;12.73;;;8.47;;
5871;SDS011;2962;51.312;7.378;2022-11-20T07:08:06;11.30;;;8.47;;
5871;SDS011;2962;51.312;7.378;2022-11-20T07:10:32;13.10;;;9.60;;
5871;SDS011;2962;51.312;7.378;2022-11-20T07:12:58;11.10;;;8.50;;
5871;SDS011;2962;51.312;7.378;2022-11-20T07:15:24;13.20;;;9.40;;
5871;SDS011;2962;51.312;7.378;2022-11-20T07:17:50;10.63;;;8.35;;
5871;SDS011;2962;51.312;7.378;2022-11-20T07:20:15;16.87;;;10.77;;
5871;SDS011;2962;51.312;7.378;2022-11-20T07:22:41;12.40;;;8.70;;
5871;SDS011;2962;51.312;7.378;2022-11-20T07:25:07;10.40;;;8.20;;
5871;SDS011;2962;51.312;7.378;2022-11-20T07:27:33;10.30;;;7.97;;
5871;SDS011;2962;51.312;7.378;2022-11-20T07:29:59;13.00;;;8.90;;
5871;SDS011;2962;51.312;7.378;2022-11-20T07:32:25;12.10;;;7.93;;
5871;SDS011;2962;51.312;7.378;2022-11-20T07:34:50;13.87;;;9.00;;
5871;SDS011;2962;51.312;7.378;2022-11-20T07:37:16;10.10;;;8.43;;
5871;SDS011;2962;51.312;7.378;2022-11-20T07:39:41;10.93;;;8.27;;
5871;SDS011;2962;51.312;7.378;2022-11-20T07:42:07;15.02;;;8.65;;
5871;SDS011;2962;51.312;7.378;2022-11-20T07:44:33;14.57;;;9.27;;
5871;SDS011;2962;51.312;7.378;2022-11-20T07:46:58;12.77;;;8.90;;
5871;SDS011;2962;51.312;7.378;2022-11-20T07:49:23;10.70;;;8.60;;
5871;SDS011;2962;51.312;7.378;2022-11-20T07:51:52;10.80;;;8.13;;
5871;SDS011;2962;51.312;7.378;2022-11-20T07:54:20;12.18;;;8.75;;
5871;SDS011;2962;51.312;7.378;2022-11-20T07:56:47;12.53;;;8.90;;
5871;SDS011;2962;51.312;7.378;2022-11-20T07:59:13;15.82;;;9.55;;
5871;SDS011;2962;51.312;7.378;2022-11-20T08:01:38;12.30;;;9.60;;
5871;SDS011;2962;51.312;7.378;2022-11-20T08:04:04;13.65;;;9.90;;
5871;SDS011;2962;51.312;7.378;2022-11-20T08:06:30;13.07;;;9.30;;
5871;SDS011;2962;51.312;7.378;2022-11-20T08:08:55;14.70;;;9.77;;
5871;SDS011;2962;51.312;7.378;2022-11-20T08:11:20;13.73;;;9.60;;
5871;SDS011;2962;51.312;7.378;2022-11-20T08:14:04;13.45;;;10.20;;
5871;SDS011;2962;51.312;7.378;2022-11-20T08:16:39;14.50;;;10.35;;
5871;SDS011;2962;51.312;7.378;2022-11-20T08:19:08;20.17;;;12.20;;
5871;SDS011;2962;51.312;7.378;2022-11-20T08:21:34;16.50;;;10.30;;
5871;SDS011;2962;51.312;7.378;2022-11-20T08:23:59;17.97;;;11.00;;
5871;SDS011;2962;51.312;7.378;2022-11-20T08:26:25;16.07;;;11.00;;
5871;SDS011;2962;51.312;7.378;2022-11-20T08:28:54;18.50;;;11.57;;
5871;SDS011;2962;51.312;7.378;2022-11-20T08:31:20;20.77;;;13.13;;
5871;SDS011;2962;51.312;7.378;2022-11-20T08:33:45;16.10;;;11.40;;
5871;SDS011;2962;51.312;7.378;2022-11-20T08:36:11;24.60;;;13.43;;
5871;SDS011;2962;51.312;7.378;2022-11-20T08:38:36;25.80;;;13.30;;
5871;SDS011;2962;51.312;7.378;2022-11-20T08:41:02;20.50;;;13.30;;
5871;SDS011;2962;51.312;7.378;2022-11-20T08:43:48;14.55;;;11.23;;
5871;SDS011;2962;51.312;7.378;2022-11-20T08:46:13;21.23;;;11.10;;
5871;SDS011;2962;51.312;7.378;2022-11-20T08:48:39;16.73;;;10.70;;
5871;SDS011;2962;51.312;7.378;2022-11-20T08:51:04;17.43;;;11.70;;
5871;SDS011;2962;51.312;7.378;2022-11-20T08:53:30;15.83;;;11.60;;
5871;SDS011;2962;51.312;7.378;2022-11-20T08:55:59;15.30;;;10.97;;
5871;SDS011;2962;51.312;7.378;2022-11-20T08:58:25;16.33;;;10.80;;
5871;SDS011;2962;51.312;7.378;2022-11-20T09:00:53;13.30;;;10.70;;
5871;SDS011;2962;51.312;7.378;2022-11-20T09:03:19;16.70;;;10.90;;
5871;SDS011;2962;51.312;7.378;2022-11-20T09:05:44;14.07;;;10.93;;
5871;SDS011;2962;51.312;7.378;2022-11-20T09:08:10;13.80;;;10.60;;
5871;SDS011;2962;51.312;7.378;2022-11-20T09:10:35;13.40;;;10.23;;
5871;SDS011;2962;51.312;7.378;2022-11-20T09:13:01;17.40;;;11.50;;
5871;SDS011;2962;51.312;7.378;2022-11-20T09:15:27;14.50;;;10.10;;
5871;SDS011;2962;51.312;7.378;2022-11-20T09:17:59;15.73;;;10.93;;
5871;SDS011;2962;51.312;7.378;2022-11-20T09:20:27;12.80;;;10.80;;
5871;SDS011;2962;51.312;7.378;2022-11-20T09:22:54;15.00;;;11.53;;
5871;SDS011;2962;51.312;7.378;2022-11-20T09:25:20;9.63;;;8.60;;
5871;SDS011;2962;51.312;7.378;2022-11-20T09:27:45;13.83;;;8.77;;
5871;SDS011;2962;51.312;7.378;2022-11-20T09:30:12;10.10;;;8.30;;
5871;SDS011;2962;51.312;7.378;2022-11-20T09:32:39;6.95;;;5.95;;
5871;SDS011;2962;51.312;7.378;2022-11-20T09:35:05;6.80;;;6.13;;
5871;SDS011;2962;51.312;7.378;2022-11-20T09:37:30;9.07;;;7.27;;
5871;SDS011;2962;51.312;7.378;2022-11-20T09:39:55;7.83;;;6.67;;
5871;SDS011;2962;51.312;7.378;2022-11-20T09:50:23;10.80;;;5.93;;
5871;SDS011;2962;51.312;7.378;2022-11-20T09:55:37;8.43;;;5.95;;
5871;SDS011;2962;51.312;7.378;2022-11-20T09:58:05;6.93;;;6.20;;
5871;SDS011;2962;51.312;7.378;2022-11-20T10:00:33;7.45;;;6.72;;
5871;SDS011;2962;51.312;7.378;2022-11-20T10:03:02;6.45;;;5.85;;
5871;SDS011;2962;51.312;7.378;2022-11-20T10:05:40;6.97;;;5.65;;
5871;SDS011;2962;51.312;7.378;2022-11-20T10:08:27;6.30;;;5.70;;
5871;SDS011;2962;51.312;7.378;2022-11-20T10:11:13;11.23;;;6.32;;
5871;SDS011;2962;51.312;7.378;2022-11-20T10:14:13;6.65;;;5.38;;
5871;SDS011;2962;51.312;7.378;2022-11-20T10:19:46;6.63;;;6.05;;
5871;SDS011;2962;51.312;7.378;2022-11-20T10:25:15;6.43;;;4.97;;
5871;SDS011;2962;51.312;7.378;2022-11-20T10:27:46;8.45;;;6.43;;
5871;SDS011;2962;51.312;7.378;2022-11-20T10:30:40;4.65;;;4.32;;
5871;SDS011;2962;51.312;7.378;2022-11-20T10:33:17;5.38;;;4.88;;
5871;SDS011;2962;51.312;7.378;2022-11-20T10:35:55;6.50;;;5.75;;
5871;SDS011;2962;51.312;7.378;2022-11-20T10:38:34;5.85;;;5.32;;
5871;SDS011;2962;51.312;7.378;2022-11-20T10:41:04;6.38;;;5.50;;
5871;SDS011;2962;51.312;7.378;2022-11-20T10:43:50;5.07;;;4.25;;
5871;SDS011;2962;51.312;7.378;2022-11-20T10:46:43;5.82;;;5.03;;
5871;SDS011;2962;51.312;7.378;2022-11-20T10:49:13;5.72;;;5.22;;
5871;SDS011;2962;51.312;7.378;2022-11-20T10:52:02;6.47;;;5.88;;
5871;SDS011;2962;51.312;7.378;2022-11-20T10:57:13;10.18;;;7.00;;
5871;SDS011;2962;51.312;7.378;2022-11-20T11:02:31;6.63;;;5.93;;
5871;SDS011;2962;51.312;7.378;2022-11-20T11:04:58;10.07;;;4.80;;
5871;SDS011;2962;51.312;7.378;2022-11-20T11:07:36;7.10;;;6.40;;
5871;SDS011;2962;51.312;7.378;2022-11-20T11:10:12;6.75;;;5.60;;
5871;SDS011;2962;51.312;7.378;2022-11-20T11:12:44;9.02;;;6.38;;
5871;SDS011;2962;51.312;7.378;2022-11-20T11:15:13;8.05;;;6.50;;
5871;SDS011;2962;51.312;7.378;2022-11-20T11:17:49;5.63;;;5.13;;
5871;SDS011;2962;51.312;7.378;2022-11-20T11:20:18;6.60;;;5.93;;
5871;SDS011;2962;51.312;7.378;2022-11-20T11:22:56;15.95;;;8.93;;
5871;SDS011;2962;51.312;7.378;2022-11-20T11:25:29;6.63;;;5.82;;
5871;SDS011;2962;51.312;7.378;2022-11-20T11:27:59;8.32;;;6.78;;
5871;SDS011;2962;51.312;7.378;2022-11-20T11:30:26;12.15;;;6.75;;
5871;SDS011;2962;51.312;7.378;2022-11-20T11:33:09;7.55;;;6.85;;
5871;SDS011;2962;51.312;7.378;2022-11-20T11:35:46;13.25;;;7.57;;
5871;SDS011;2962;51.312;7.378;2022-11-20T11:38:15;8.60;;;6.63;;
5871;SDS011;2962;51.312;7.378;2022-11-20T11:40:44;11.33;;;8.07;;
5871;SDS011;2962;51.312;7.378;2022-11-20T11:43:22;9.00;;;7.03;;
5871;SDS011;2962;51.312;7.378;2022-11-20T11:46:21;8.50;;;6.43;;
5871;SDS011;2962;51.312;7.378;2022-11-20T11:48:57;9.00;;;7.35;;
5871;SDS011;2962;51.312;7.378;2022-11-20T11:51:26;10.90;;;7.80;;
5871;SDS011;2962;51.312;7.378;2022-11-20T11:53:59;9.05;;;7.47;;
5871;SDS011;2962;51.312;7.378;2022-11-20T11:56:28;8.93;;;6.87;;
5871;SDS011;2962;51.312;7.378;2022-11-20T11:58:56;10.10;;;7.53;;
5871;SDS011;2962;51.312;7.378;2022-11-20T12:06:29;11.23;;;8.77;;
5871;SDS011;2962;51.312;7.378;2022-11-20T12:08:58;11.45;;;8.27;;
5871;SDS011;2962;51.312;7.378;2022-11-20T12:14:31;15.35;;;10.25;;
5871;SDS011;2962;51.312;7.378;2022-11-20T12:17:00;11.43;;;9.40;;
5871;SDS011;2962;51.312;7.378;2022-11-20T12:19:26;13.15;;;10.23;;
5871;SDS011;2962;51.312;7.378;2022-11-20T12:25:07;14.77;;;11.00;;
5871;SDS011;2962;51.312;7.378;2022-11-20T12:30:26;18.65;;;12.70;;
5871;SDS011;2962;51.312;7.378;2022-11-20T12:33:01;19.90;;;11.73;;
5871;SDS011;2962;51.312;7.378;2022-11-20T12:36:18;21.80;;;12.90;;
5871;SDS011;2962;51.312;7.378;2022-11-20T12:39:03;16.38;;;11.93;;
5871;SDS011;2962;51.312;7.378;2022-11-20T12:55:11;20.90;;;13.70;;
5871;SDS011;2962;51.312;7.378;2022-11-20T12:57:56;20.00;;;13.82;;
5871;SDS011;2962;51.312;7.378;2022-11-20T13:00:25;18.50;;;12.75;;
5871;SDS011;2962;51.312;7.378;2022-11-20T13:09:06;21.35;;;13.15;;
5871;SDS011;2962;51.312;7.378;2022-11-20T13:11:44;24.77;;;14.52;;
5871;SDS011;2962;51.312;7.378;2022-11-20T13:17:28;23.42;;;15.07;;
5871;SDS011;2962;51.312;7.378;2022-11-20T13:20:00;23.92;;;14.93;;
5871;SDS011;2962;51.312;7.378;2022-11-20T13:22:46;22.80;;;14.00;;
5871;SDS011;2962;51.312;7.378;2022-11-20T13:25:29;22.17;;;13.77;;
5871;SDS011;2962;51.312;7.378;2022-11-20T13:27:55;25.52;;;15.10;;
5871;SDS011;2962;51.312;7.378;2022-11-20T13:30:23;24.98;;;15.50;;
5871;SDS011;2962;51.312;7.378;2022-11-20T13:35:29;22.85;;;13.55;;
5871;SDS011;2962;51.312;7.378;2022-11-20T13:38:01;30.05;;;13.63;;
5871;SDS011;2962;51.312;7.378;2022-11-20T13:40:59;24.63;;;13.30;;
5871;SDS011;2962;51.312;7.378;2022-11-20T13:43:44;24.40;;;14.90;;
5871;SDS011;2962;51.312;7.378;2022-11-20T13:46:12;27.98;;;14.60;;
5871;SDS011;2962;51.312;7.378;2022-11-20T13:48:45;23.33;;;14.17;;
5871;SDS011;2962;51.312;7.378;2022-11-20T14:01:50;23.85;;;14.60;;
5871;SDS011;2962;51.312;7.378;2022-11-20T14:04:18;25.20;;;15.10;;
5871;SDS011;2962;51.312;7.378;2022-11-20T14:06:50;29.45;;;14.73;;
5871;SDS011;2962;51.312;7.378;2022-11-20T14:09:29;21.57;;;14.30;;
5871;SDS011;2962;51.312;7.378;2022-11-20T14:11:56;26.85;;;16.13;;
5871;SDS011;2962;51.312;7.378;2022-11-20T14:14:23;30.73;;;16.60;;
5871;SDS011;2962;51.312;7.378;2022-11-20T14:16:50;31.25;;;15.70;;
5871;SDS011;2962;51.312;7.378;2022-11-20T14:21:52;39.30;;;20.00;;
5871;SDS011;2962;51.312;7.378;2022-11-20T14:24:20;38.15;;;18.73;;
5871;SDS011;2962;51.312;7.378;2022-11-20T14:26:47;37.00;;;18.88;;
5871;SDS011;2962;51.312;7.378;2022-11-20T14:29:14;34.23;;;17.80;;
5871;SDS011;2962;51.312;7.378;2022-11-20T14:31:42;35.65;;;17.85;;
5871;SDS011;2962;51.312;7.378;2022-11-20T14:34:15;36.00;;;19.48;;
5871;SDS011;2962;51.312;7.378;2022-11-20T14:36:44;37.55;;;18.42;;
5871;SDS011;2962;51.312;7.378;2022-11-20T14:39:11;38.40;;;19.50;;
5871;SDS011;2962;51.312;7.378;2022-11-20T14:41:50;44.80;;;20.60;;
5871;SDS011;2962;51.312;7.378;2022-11-20T14:44:16;39.13;;;19.38;;
5871;SDS011;2962;51.312;7.378;2022-11-20T14:46:42;38.67;;;18.53;;
5871;SDS011;2962;51.312;7.378;2022-11-20T14:49:08;35.05;;;17.70;;
5871;SDS011;2962;51.312;7.378;2022-11-20T14:51:36;37.17;;;18.83;;
5871;SDS011;2962;51.312;7.378;2022-11-20T14:56:42;41.72;;;18.90;;
5871;SDS011;2962;51.312;7.378;2022-11-20T14:59:22;41.58;;;19.70;;
5871;SDS011;2962;51.312;7.378;2022-11-20T15:01:59;44.15;;;20.63;;
5871;SDS011;2962;51.312;7.378;2022-11-20T15:04:27;51.53;;;22.00;;
5871;SDS011;2962;51.312;7.378;2022-11-20T15:06:54;52.30;;;21.70;;
5871;SDS011;2962;51.312;7.378;2022-11-20T15:09:20;52.58;;;23.98;;
5871;SDS011;2962;51.312;7.378;2022-11-20T15:11:55;45.57;;;19.50;;
5871;SDS011;2962;51.312;7.378;2022-11-20T15:14:24;49.33;;;21.35;;
5871;SDS011;2962;51.312;7.378;2022-11-20T15:16:52;50.30;;;23.50;;
5871;SDS011;2962;51.312;7.378;2022-11-20T15:19:19;47.67;;;21.88;;
5871;SDS011;2962;51.312;7.378;2022-11-20T15:21:46;58.72;;;23.52;;
5871;SDS011;2962;51.312;7.378;2022-11-20T15:24:11;49.17;;;21.13;;
5871;SDS011;2962;51.312;7.378;2022-11-20T15:26:37;55.03;;;22.33;;
5871;SDS011;2962;51.312;7.378;2022-11-20T15:29:05;54.50;;;22.23;;
5871;SDS011;2962;51.312;7.378;2022-11-20T15:31:33;54.38;;;22.05;;
5871;SDS011;2962;51.312;7.378;2022-11-20T15:33:59;52.20;;;22.50;;
5871;SDS011;2962;51.312;7.378;2022-11-20T15:36:24;60.50;;;24.13;;
5871;SDS011;2962;51.312;7.378;2022-11-20T15:38:50;58.20;;;21.57;;
5871;SDS011;2962;51.312;7.378;2022-11-20T15:41:15;54.77;;;21.17;;
5871;SDS011;2962;51.312;7.378;2022-11-20T15:43:40;52.40;;;22.23;;
5871;SDS011;2962;51.312;7.378;2022-11-20T15:46:10;52.40;;;22.73;;
5871;SDS011;2962;51.312;7.378;2022-11-20T15:48:39;53.33;;;21.73;;
5871;SDS011;2962;51.312;7.378;2022-11-20T15:53:34;60.97;;;22.00;;
5871;SDS011;2962;51.312;7.378;2022-11-20T15:55:59;54.37;;;20.90;;
5871;SDS011;2962;51.312;7.378;2022-11-20T15:58:24;49.03;;;20.97;;
5871;SDS011;2962;51.312;7.378;2022-11-20T16:00:50;49.97;;;20.63;;
5871;SDS011;2962;51.312;7.378;2022-11-20T16:03:16;46.03;;;19.27;;
5871;SDS011;2962;51.312;7.378;2022-11-20T16:05:42;46.97;;;21.85;;
5871;SDS011;2962;51.312;7.378;2022-11-20T16:08:08;43.70;;;20.67;;
5871;SDS011;2962;51.312;7.378;2022-11-20T16:10:33;45.03;;;19.73;;
5871;SDS011;2962;51.312;7.378;2022-11-20T16:12:59;42.65;;;18.60;;
5871;SDS011;2962;51.312;7.378;2022-11-20T16:15:44;44.42;;;20.35;;
5871;SDS011;2962;51.312;7.378;2022-11-20T16:18:18;50.22;;;20.65;;
5871;SDS011;2962;51.312;7.378;2022-11-20T16:20:45;45.85;;;18.77;;
5871;SDS011;2962;51.312;7.378;2022-11-20T16:23:11;44.83;;;20.38;;
5871;SDS011;2962;51.312;7.378;2022-11-20T16:25:37;41.23;;;16.60;;
5871;SDS011;2962;51.312;7.378;2022-11-20T16:28:02;51.10;;;18.80;;
5871;SDS011;2962;51.312;7.378;2022-11-20T16:30:28;42.25;;;18.73;;